Time;durP1;ratioP1;P1;durP2;ratioP2;P2;SDS_P1;SDS_P2;PMS_P1;PMS_P2;Temp;Humidity;BMP_temperature;BMP_pressure;BME280_temperature;BME280_humidity;BME280_pressure;Samples;Min_cycle;Max_cycle;Signal;HPM_P1;HPM_P2
2024/04/17 00:00:35;;;;;;;22.53;20.77;;;6.90;89.60;;;;;;5527289;26;20206;-85
2024/04/17 00:03:00;;;;;;;22.47;20.67;;;6.80;89.40;;;;;;5494484;26;20241;-86
2024/04/17 00:05:26;;;;;;;20.10;18.70;;;6.70;89.30;;;;;;5494639;26;20218;-85
2024/04/17 00:07:51;;;;;;;19.43;18.13;;;6.70;89.20;;;;;;5527116;26;20207;-85
2024/04/17 00:10:17;;;;;;;19.50;18.10;;;6.70;89.20;;;;;;5527052;26;20296;-85
2024/04/17 00:12:42;;;;;;;20.23;18.83;;;6.70;89.20;;;;;;5494511;26;20244;-85
2024/04/17 00:15:08;;;;;;;19.03;17.80;;;6.80;89.10;;;;;;5527287;26;20210;-85
2024/04/17 00:17:33;;;;;;;21.50;20.03;;;6.70;88.90;;;;;;5526973;26;20254;-86
2024/04/17 00:19:59;;;;;;;20.27;18.90;;;6.70;88.80;;;;;;5527280;26;20210;-85
2024/04/17 00:22:24;;;;;;;21.83;20.23;;;6.70;88.50;;;;;;5526915;26;20214;-85
2024/04/17 00:24:50;;;;;;;21.57;19.97;;;6.70;88.50;;;;;;5527037;26;20633;-86
2024/04/17 00:27:15;;;;;;;21.63;20.23;;;6.70;88.40;;;;;;5494374;26;20230;-85
2024/04/17 00:29:40;;;;;;;21.87;20.27;;;6.70;88.20;;;;;;5526728;26;20218;-85
2024/04/17 00:32:07;;;;;;;20.50;19.00;;;6.70;88.00;;;;;;5527096;26;20321;-86
2024/04/17 00:34:33;;;;;;;11.83;10.90;;;6.70;87.80;;;;;;5527054;26;20310;-85
2024/04/17 00:36:58;;;;;;;11.77;10.90;;;6.70;87.60;;;;;;5526880;26;20217;-85
2024/04/17 00:39:26;;;;;;;11.03;10.30;;;6.70;87.40;;;;;;5526794;26;20226;-85
2024/04/17 00:41:51;;;;;;;11.67;10.87;;;6.60;87.20;;;;;;5494122;26;20293;-85
2024/04/17 00:44:17;;;;;;;12.10;11.30;;;6.60;87.20;;;;;;5493444;26;20234;-86
2024/04/17 00:46:44;;;;;;;12.40;11.20;;;6.50;87.00;;;;;;5527039;26;20706;-85
2024/04/17 00:49:10;;;;;;;12.47;11.43;;;6.50;86.90;;;;;;5526899;26;20256;-85
2024/04/17 00:51:39;;;;;;;12.77;11.87;;;6.50;86.70;;;;;;5526789;26;20210;-85
2024/04/17 00:54:05;;;;;;;12.67;11.87;;;6.40;86.70;;;;;;5526551;26;20230;-85
2024/04/17 00:56:32;;;;;;;12.80;12.00;;;6.40;86.70;;;;;;5526654;26;20222;-86
2024/04/17 00:58:59;;;;;;;12.70;11.50;;;6.40;86.90;;;;;;5493875;26;20222;-85
2024/04/17 01:01:24;;;;;;;12.97;11.87;;;6.40;86.90;;;;;;5526453;26;20214;-85
2024/04/17 01:03:50;;;;;;;12.73;11.93;;;6.40;87.00;;;;;;5526259;26;20226;-85
2024/04/17 01:06:16;;;;;;;12.33;11.43;;;6.40;87.00;;;;;;5526609;26;20214;-86
2024/04/17 01:08:41;;;;;;;12.73;11.63;;;6.30;86.90;;;;;;5526571;26;20249;-85
2024/04/17 01:11:07;;;;;;;13.20;12.17;;;6.30;87.00;;;;;;5526601;26;20214;-85
2024/04/17 01:13:32;;;;;;;13.20;11.93;;;6.30;87.00;;;;;;5526340;26;20249;-85
2024/04/17 01:15:58;;;;;;;12.60;11.67;;;6.30;86.90;;;;;;5493637;26;20309;-85
2024/04/17 01:18:24;;;;;;;13.30;12.40;;;6.30;86.80;;;;;;5526142;26;20321;-85
2024/04/17 01:20:50;;;;;;;12.80;11.90;;;6.20;86.80;;;;;;5525955;26;20214;-85
2024/04/17 01:23:15;;;;;;;13.20;12.30;;;6.20;86.60;;;;;;5526450;26;20221;-85
2024/04/17 01:25:41;;;;;;;12.87;12.00;;;6.10;86.60;;;;;;5526518;26;20261;-85
2024/04/17 01:28:07;;;;;;;12.70;11.90;;;6.10;86.70;;;;;;5526259;26;20338;-85
2024/04/17 01:30:32;;;;;;;12.90;11.90;;;6.10;86.60;;;;;;5526874;26;20593;-85
2024/04/17 01:32:58;;;;;;;13.13;12.03;;;6.10;86.50;;;;;;5526063;26;20206;-85
2024/04/17 01:35:24;;;;;;;12.73;11.93;;;6.00;86.40;;;;;;5527119;26;20281;-85
2024/04/17 01:37:50;;;;;;;13.30;12.30;;;6.00;86.30;;;;;;5526384;26;20206;-85
2024/04/17 01:40:15;;;;;;;12.37;11.53;;;5.90;86.30;;;;;;5494158;26;20238;-87
2024/04/17 01:42:41;;;;;;;13.43;12.40;;;5.90;86.20;;;;;;5526059;26;20256;-85
2024/04/17 01:45:07;;;;;;;12.63;11.87;;;5.90;86.20;;;;;;5526577;26;20686;-85
2024/04/17 01:47:32;;;;;;;27.07;25.37;;;5.80;86.00;;;;;;5526821;26;20222;-84
2024/04/17 01:50:01;;;;;;;27.03;25.23;;;5.80;86.00;;;;;;5526480;26;20214;-85
2024/04/17 01:52:27;;;;;;;27.53;25.70;;;5.80;85.70;;;;;;5494190;26;20218;-85
2024/04/17 01:54:52;;;;;;;26.90;25.10;;;5.70;85.60;;;;;;5526955;26;20302;-84
2024/04/17 01:57:18;;;;;;;28.00;26.17;;;5.80;85.70;;;;;;5530325;26;20274;-85
2024/04/17 01:59:43;;;;;;;27.23;25.53;;;5.70;85.50;;;;;;5529731;26;20810;-85
2024/04/17 02:02:09;;;;;;;27.80;25.83;;;5.60;85.40;;;;;;5530510;26;20261;-84
2024/04/17 02:04:34;;;;;;;26.93;24.90;;;5.60;85.40;;;;;;5529518;26;20249;-85
2024/04/17 02:07:00;;;;;;;24.60;22.87;;;5.60;85.40;;;;;;5530186;26;20214;-84
2024/04/17 02:09:25;;;;;;;25.27;23.67;;;5.60;85.50;;;;;;5530339;26;20218;-84
2024/04/17 02:11:51;;;;;;;26.30;24.37;;;5.60;85.30;;;;;;5530088;26;20210;-86
2024/04/17 02:14:16;;;;;;;27.27;25.20;;;5.50;85.30;;;;;;5529942;26;20222;-87
2024/04/17 02:16:42;;;;;;;26.40;24.60;;;5.40;85.10;;;;;;5529863;26;20254;-86
2024/04/17 02:19:07;;;;;;;26.20;24.60;;;5.30;85.20;;;;;;5530095;26;20310;-86
2024/04/17 02:21:33;;;;;;;25.80;24.00;;;5.30;85.30;;;;;;5529436;26;20218;-85
2024/04/17 02:23:58;;;;;;;27.57;25.63;;;5.30;85.50;;;;;;5530153;26;20826;-86
2024/04/17 02:26:24;;;;;;;27.83;25.63;;;5.30;85.60;;;;;;5496783;26;20265;-85
2024/04/17 02:28:49;;;;;;;27.23;25.17;;;5.40;85.70;;;;;;5530079;26;20222;-85
2024/04/17 02:31:15;;;;;;;25.67;23.87;;;5.40;85.50;;;;;;5496784;26;20302;-85
2024/04/17 02:33:40;;;;;;;26.23;24.57;;;5.30;85.40;;;;;;5530486;26;20257;-85
2024/04/17 02:36:06;;;;;;;26.53;24.63;;;5.30;85.40;;;;;;5529442;26;20735;-85
2024/04/17 02:38:32;;;;;;;26.07;24.27;;;5.30;85.30;;;;;;5497482;26;20218;-85
2024/04/17 02:40:58;;;;;;;26.93;25.23;;;5.30;85.50;;;;;;5529975;26;20222;-85
2024/04/17 02:43:23;;;;;;;25.00;23.33;;;5.20;85.50;;;;;;5530093;26;20222;-85
2024/04/17 02:45:49;;;;;;;25.57;23.87;;;5.10;86.00;;;;;;5529651;26;20607;-85
2024/04/17 02:48:14;;;;;;;25.53;23.83;;;5.10;86.00;;;;;;5530150;26;20561;-85
2024/04/17 02:50:41;;;;;;;23.00;21.60;;;5.20;86.00;;;;;;5529294;26;20744;-85
2024/04/17 02:53:06;;;;;;;24.50;22.90;;;5.10;86.10;;;;;;5496767;26;20238;-85
2024/04/17 02:55:32;;;;;;;24.73;23.17;;;5.10;86.00;;;;;;5529733;26;20213;-85
2024/04/17 02:57:57;;;;;;;24.43;22.90;;;5.10;86.00;;;;;;5496329;26;20260;-85
2024/04/17 03:00:23;;;;;;;25.17;23.40;;;5.00;85.90;;;;;;5529886;26;20273;-85
2024/04/17 03:02:48;;;;;;;24.40;22.80;;;5.00;86.00;;;;;;5529479;26;20241;-86
2024/04/17 03:05:14;;;;;;;25.07;23.37;;;5.00;85.90;;;;;;5529954;26;20210;-85
2024/04/17 03:07:44;;;;;;;13.20;12.40;;;5.00;85.80;;;;;;5528965;26;20222;-86
2024/04/17 03:10:10;;;;;;;12.90;12.00;;;5.00;86.00;;;;;;5496971;26;20210;-87
2024/04/17 03:12:35;;;;;;;12.83;11.93;;;5.00;85.90;;;;;;5529422;26;20265;-85
2024/04/17 03:15:01;;;;;;;12.93;11.93;;;5.00;85.90;;;;;;5529278;26;20222;-85
2024/04/17 03:17:26;;;;;;;12.80;11.70;;;4.80;86.30;;;;;;5496143;26;20218;-85
2024/04/17 03:19:52;;;;;;;12.00;11.10;;;4.90;86.60;;;;;;5530290;26;20773;-84
2024/04/17 03:22:17;;;;;;;13.17;12.10;;;4.90;86.60;;;;;;5496031;26;20222;-85
2024/04/17 03:24:43;;;;;;;12.73;11.53;;;5.00;86.70;;;;;;5529044;26;20222;-85
2024/04/17 03:27:08;;;;;;;12.30;11.50;;;5.00;86.60;;;;;;5496288;26;20262;-86
2024/04/17 03:29:34;;;;;;;11.53;10.67;;;5.00;86.80;;;;;;5496829;26;20264;-86
2024/04/17 03:32:03;;;;;;;11.90;11.10;;;5.00;86.80;;;;;;5529480;26;20310;-85
2024/04/17 03:34:28;;;;;;;12.20;11.30;;;5.10;86.90;;;;;;5529221;26;20222;-85
2024/04/17 03:36:54;;;;;;;11.20;10.43;;;5.00;86.80;;;;;;5496470;26;20218;-85
2024/04/17 03:39:19;;;;;;;13.17;11.90;;;5.00;86.90;;;;;;5528482;26;20260;-85
2024/04/17 03:41:46;;;;;;;12.80;11.80;;;5.00;87.00;;;;;;5529041;26;20251;-85
2024/04/17 03:44:12;;;;;;;13.13;12.23;;;5.00;87.00;;;;;;5495649;26;20329;-86
2024/04/17 03:46:37;;;;;;;12.10;11.30;;;5.00;86.90;;;;;;5496565;26;20225;-85
2024/04/17 03:49:03;;;;;;;12.77;11.90;;;5.00;86.90;;;;;;5528638;26;20318;-86
2024/04/17 03:51:28;;;;;;;13.63;12.57;;;5.00;86.90;;;;;;5529529;26;20560;-85
2024/04/17 03:53:54;;;;;;;13.27;12.30;;;5.00;86.90;;;;;;5528386;26;20237;-86
2024/04/17 03:56:19;;;;;;;13.30;12.40;;;5.00;87.00;;;;;;5529032;26;20214;-85
2024/04/17 03:58:45;;;;;;;13.47;12.47;;;5.00;87.00;;;;;;5496178;26;20218;-85
2024/04/17 04:01:10;;;;;;;13.40;12.30;;;5.00;87.10;;;;;;5496191;26;20586;-85
2024/04/17 04:03:36;;;;;;;12.90;11.80;;;5.00;87.20;;;;;;5529148;26;20568;-85
2024/04/17 04:06:01;;;;;;;12.73;11.83;;;5.00;87.30;;;;;;5528906;26;20564;-86
2024/04/17 04:08:27;;;;;;;12.10;11.27;;;5.00;87.40;;;;;;5528753;26;20252;-86
2024/04/17 04:10:52;;;;;;;12.27;11.37;;;5.10;87.40;;;;;;5528454;26;20570;-86
2024/04/17 04:13:18;;;;;;;12.53;11.57;;;5.00;87.40;;;;;;5529070;26;20222;-85
2024/04/17 04:15:54;;;;;;;12.30;11.40;;;5.10;87.50;;;;;;5528008;26;20214;-85
2024/04/17 04:18:19;;;;;;;22.50;20.97;;;5.00;87.60;;;;;;5494982;26;20240;-85
2024/04/17 04:20:45;;;;;;;23.27;21.60;;;5.10;87.70;;;;;;5528263;26;20210;-85
2024/04/17 04:23:10;;;;;;;19.80;18.50;;;5.00;87.70;;;;;;5528514;26;20218;-87
2024/04/17 04:25:36;;;;;;;19.87;18.37;;;5.10;87.70;;;;;;5528412;26;20210;-85
2024/04/17 04:28:01;;;;;;;19.50;18.20;;;5.10;87.70;;;;;;5528881;26;20694;-85
2024/04/17 04:30:27;;;;;;;21.40;20.00;;;5.10;87.60;;;;;;5528885;26;20256;-85
2024/04/17 04:32:52;;;;;;;21.43;20.03;;;5.00;87.60;;;;;;5528069;26;20805;-86
2024/04/17 04:35:18;;;;;;;19.93;18.53;;;5.10;87.70;;;;;;5528558;26;20295;-86
2024/04/17 04:37:43;;;;;;;20.60;18.73;;;5.20;87.50;;;;;;5528261;26;20285;-87
2024/04/17 04:40:09;;;;;;;20.13;18.77;;;5.10;87.40;;;;;;5528587;26;20612;-86
2024/04/17 04:42:35;;;;;;;20.07;18.53;;;5.10;87.30;;;;;;5527669;26;20257;-85
2024/04/17 04:45:00;;;;;;;21.13;19.83;;;5.30;87.50;;;;;;5528669;26;20230;-85
2024/04/17 04:47:26;;;;;;;21.37;19.97;;;5.40;87.40;;;;;;5528117;26;20257;-85
2024/04/17 04:49:51;;;;;;;19.67;18.27;;;5.50;87.30;;;;;;5528380;26;20222;-85
2024/04/17 04:52:17;;;;;;;21.03;19.63;;;5.70;87.20;;;;;;5528101;26;20214;-87
2024/04/17 04:54:43;;;;;;;20.87;19.57;;;5.80;86.90;;;;;;5528898;26;20278;-86
2024/04/17 04:57:09;;;;;;;20.37;18.97;;;6.00;86.60;;;;;;5528314;26;20214;-85
2024/04/17 04:59:34;;;;;;;20.47;19.17;;;6.10;86.00;;;;;;5528342;26;20312;-85
2024/04/17 05:02:00;;;;;;;21.13;19.63;;;6.20;85.60;;;;;;5495507;26;20218;-87
2024/04/17 05:04:26;;;;;;;21.07;19.57;;;6.30;85.10;;;;;;5527693;26;20256;-85
2024/04/17 05:06:51;;;;;;;20.13;18.73;;;6.40;84.70;;;;;;5527845;26;20210;-87
2024/04/17 05:09:17;;;;;;;20.57;18.80;;;6.40;84.10;;;;;;5527735;26;20206;-85
2024/04/17 05:11:42;;;;;;;21.20;19.70;;;6.40;83.70;;;;;;5528147;26;20261;-85
2024/04/17 05:14:08;;;;;;;21.23;19.93;;;6.30;83.40;;;;;;5494616;26;20702;-86
2024/04/17 05:16:33;;;;;;;21.23;19.83;;;6.10;83.30;;;;;;5495603;26;20218;-85
2024/04/17 05:18:59;;;;;;;21.83;20.33;;;6.00;83.40;;;;;;5527628;26;20578;-86
2024/04/17 05:21:24;;;;;;;22.40;20.90;;;5.90;83.50;;;;;;5528586;26;20214;-88
2024/04/17 05:23:50;;;;;;;23.37;21.80;;;5.90;83.60;;;;;;5527407;26;20290;-85
2024/04/17 05:26:15;;;;;;;23.43;21.93;;;5.90;83.90;;;;;;5528061;26;20257;-85
2024/04/17 05:28:41;;;;;;;23.13;21.13;;;5.90;83.90;;;;;;5528530;26;20248;-85
2024/04/17 05:31:06;;;;;;;23.20;21.70;;;5.80;84.00;;;;;;5531085;26;20206;-85
2024/04/17 05:33:32;;;;;;;23.23;21.73;;;5.80;84.10;;;;;;5498216;26;20234;-86
2024/04/17 05:35:57;;;;;;;22.97;21.47;;;5.80;84.30;;;;;;5531443;26;20210;-86
2024/04/17 05:38:23;;;;;;;22.40;20.90;;;5.70;84.40;;;;;;5498450;26;20237;-86
2024/04/17 05:40:48;;;;;;;21.47;20.07;;;5.70;84.50;;;;;;5531087;26;20218;-87
2024/04/17 05:43:18;;;;;;;21.57;19.97;;;5.70;84.80;;;;;;5498632;26;20242;-86
2024/04/17 05:45:46;;;;;;;22.20;20.80;;;5.70;85.10;;;;;;5531084;26;20214;-83
2024/04/17 05:48:12;;;;;;;22.47;20.93;;;5.70;85.30;;;;;;5531720;26;20774;-87
2024/04/17 05:50:39;;;;;;;23.83;22.00;;;5.70;85.70;;;;;;5531174;26;20210;-86
2024/04/17 05:53:05;;;;;;;22.87;21.20;;;5.80;85.90;;;;;;5531731;26;20661;-87
2024/04/17 05:55:31;;;;;;;21.50;20.10;;;5.80;86.20;;;;;;5530973;26;20222;-85
2024/04/17 05:57:57;;;;;;;22.70;21.03;;;6.00;86.30;;;;;;5531775;26;20214;-86
2024/04/17 06:00:22;;;;;;;22.57;20.87;;;6.00;86.30;;;;;;5530801;26;20605;-86
2024/04/17 06:02:48;;;;;;;20.87;19.40;;;6.00;86.40;;;;;;5498276;26;20214;-85
2024/04/17 06:05:14;;;;;;;13.50;12.47;;;6.10;86.60;;;;;;5530805;26;20210;-87
2024/04/17 06:07:40;;;;;;;12.63;11.73;;;6.20;86.50;;;;;;5531255;26;20232;-86
2024/04/17 06:10:06;;;;;;;14.77;11.73;;;6.30;86.50;;;;;;5531240;26;20210;-87
2024/04/17 06:12:32;;;;;;;13.30;12.20;;;6.40;86.70;;;;;;5530555;26;20218;-85
2024/04/17 06:14:57;;;;;;;12.60;11.70;;;6.50;86.90;;;;;;5498481;26;20274;-85
2024/04/17 06:17:23;;;;;;;11.77;10.70;;;6.50;87.00;;;;;;5530473;26;20209;-86
2024/04/17 06:19:49;;;;;;;12.10;10.83;;;6.50;87.20;;;;;;5531583;26;20214;-86
2024/04/17 06:22:15;;;;;;;11.67;10.67;;;6.60;87.20;;;;;;5530556;26;20215;-88
2024/04/17 06:24:41;;;;;;;11.27;10.30;;;6.60;87.30;;;;;;5531621;26;20222;-87
2024/04/17 06:27:06;;;;;;;13.93;10.80;;;6.60;87.50;;;;;;5497940;26;20729;-85
2024/04/17 06:29:33;;;;;;;12.17;10.27;;;6.70;87.50;;;;;;5530732;26;20716;-86
2024/04/17 06:31:58;;;;;;;12.30;11.10;;;6.70;87.50;;;;;;5530821;26;20706;-84
2024/04/17 06:34:24;;;;;;;12.63;11.40;;;6.70;87.70;;;;;;5531249;26;20230;-87
2024/04/17 06:36:49;;;;;;;14.80;11.00;;;6.70;87.70;;;;;;5498409;26;20218;-87
2024/04/17 06:39:15;;;;;;;16.77;11.50;;;6.80;87.80;;;;;;5530655;26;20282;-86
2024/04/17 06:41:40;;;;;;;13.00;11.70;;;6.90;87.80;;;;;;5529948;26;20366;-86
2024/04/17 06:44:06;;;;;;;14.87;10.63;;;7.20;87.60;;;;;;5530014;26;20258;-85
2024/04/17 06:46:31;;;;;;;12.03;10.73;;;7.30;87.40;;;;;;5531649;26;20280;-85
2024/04/17 06:48:57;;;;;;;12.33;11.13;;;7.20;87.30;;;;;;5530677;26;20218;-88
2024/04/17 06:51:22;;;;;;;13.37;11.13;;;7.20;87.40;;;;;;5531427;26;20593;-85
2024/04/17 06:53:48;;;;;;;12.03;10.83;;;7.30;87.80;;;;;;5531044;26;20222;-87
2024/04/17 06:56:13;;;;;;;12.00;9.90;;;7.50;87.50;;;;;;5531282;26;20233;-87
2024/04/17 06:58:39;;;;;;;12.40;10.00;;;7.70;86.90;;;;;;5531044;26;20214;-87
2024/04/17 07:01:05;;;;;;;14.93;10.73;;;7.80;86.50;;;;;;5498042;26;20221;-87
2024/04/17 07:03:30;;;;;;;14.80;10.97;;;7.80;86.60;;;;;;5530544;26;20306;-86
2024/04/17 07:06:05;;;;;;;12.43;11.23;;;7.90;85.60;;;;;;5497708;26;20218;-86
2024/04/17 07:08:30;;;;;;;10.93;9.90;;;7.80;85.20;;;;;;5531509;26;20178;-87
2024/04/17 07:10:56;;;;;;;15.90;10.10;;;7.80;85.40;;;;;;5530348;26;20210;-87
2024/04/17 07:13:21;;;;;;;17.53;9.73;;;7.80;85.40;;;;;;5530392;26;20313;-87
2024/04/17 07:15:47;;;;;;;10.07;8.93;;;7.70;85.30;;;;;;5529902;26;20214;-85
2024/04/17 07:18:13;;;;;;;15.67;9.00;;;7.80;85.40;;;;;;5530943;26;20313;-88
2024/04/17 07:20:38;;;;;;;16.70;10.07;;;7.80;85.70;;;;;;5530255;26;20319;-86
2024/04/17 07:23:04;;;;;;;13.57;10.33;;;7.80;85.60;;;;;;5498210;26;20230;-86
2024/04/17 07:25:30;;;;;;;11.07;9.80;;;7.90;85.80;;;;;;5530078;26;20214;-86
2024/04/17 07:27:55;;;;;;;13.33;9.83;;;8.00;85.80;;;;;;5530875;26;20214;-87
2024/04/17 07:30:21;;;;;;;10.43;9.33;;;8.00;85.50;;;;;;5530204;26;20210;-86
2024/04/17 07:32:48;;;;;;;14.70;10.13;;;8.00;85.30;;;;;;5530932;26;20548;-88
2024/04/17 07:35:13;;;;;;;16.40;10.07;;;8.00;85.80;;;;;;5529923;26;20270;-85
2024/04/17 07:37:39;;;;;;;13.37;9.97;;;8.00;85.80;;;;;;5498166;26;20245;-86
2024/04/17 07:40:05;;;;;;;12.50;10.13;;;8.00;86.00;;;;;;5529884;26;20234;-86
2024/04/17 07:42:31;;;;;;;13.43;10.57;;;7.80;85.80;;;;;;5497521;26;20218;-87
2024/04/17 07:44:56;;;;;;;12.17;10.13;;;7.80;86.10;;;;;;5530379;26;20226;-87
2024/04/17 07:47:23;;;;;;;12.00;10.70;;;7.80;86.30;;;;;;5530467;26;20257;-85
2024/04/17 07:49:50;;;;;;;12.70;10.10;;;7.90;86.00;;;;;;5530570;26;20279;-88
2024/04/17 07:52:15;;;;;;;13.90;10.40;;;8.20;86.20;;;;;;5531283;26;20213;-87
2024/04/17 07:54:41;;;;;;;12.87;10.60;;;8.30;83.80;;;;;;5529546;26;20740;-86
2024/04/17 07:57:06;;;;;;;11.97;10.23;;;8.40;83.70;;;;;;5530422;26;20252;-85
2024/04/17 07:59:32;;;;;;;15.10;10.53;;;8.50;83.90;;;;;;5497196;26;20226;-85
2024/04/17 08:01:57;;;;;;;13.93;10.30;;;8.60;83.40;;;;;;5530465;26;20763;-87
2024/04/17 08:04:23;;;;;;;17.67;11.93;;;8.50;83.00;;;;;;5529577;26;20598;-87
2024/04/17 08:06:48;;;;;;;14.77;12.17;;;8.60;83.10;;;;;;5497444;26;20233;-87
2024/04/17 08:09:14;;;;;;;15.27;12.60;;;8.60;83.10;;;;;;5529366;26;20218;-88
2024/04/17 08:11:40;;;;;;;16.67;12.60;;;8.80;82.60;;;;;;5529200;26;20277;-87
2024/04/17 08:14:05;;;;;;;14.67;13.20;;;8.80;82.20;;;;;;5529947;26;20233;-88
2024/04/17 08:16:31;;;;;;;17.43;12.80;;;8.80;81.50;;;;;;5496063;26;20217;-84
2024/04/17 08:18:56;;;;;;;14.50;12.93;;;8.60;82.60;;;;;;5497926;26;20226;-85
2024/04/17 08:21:22;;;;;;;12.77;11.10;;;8.80;84.30;;;;;;5529738;26;20279;-86
2024/04/17 08:23:47;;;;;;;19.27;17.67;;;8.70;84.20;;;;;;5530234;26;20218;-86
2024/04/17 08:26:13;;;;;;;21.00;19.00;;;8.60;83.90;;;;;;5530754;26;20256;-87
2024/04/17 08:28:39;;;;;;;23.93;22.00;;;8.70;83.50;;;;;;5498484;26;20226;-86
2024/04/17 08:31:04;;;;;;;24.63;22.33;;;8.80;81.90;;;;;;5531194;26;20694;-87
2024/04/17 08:33:30;;;;;;;23.53;21.67;;;8.80;80.70;;;;;;5531475;26;20701;-86
2024/04/17 08:35:55;;;;;;;23.43;21.33;;;8.80;81.40;;;;;;5532035;26;20252;-86
2024/04/17 08:38:21;;;;;;;23.80;21.90;;;9.00;81.00;;;;;;5531322;26;20210;-87
2024/04/17 08:40:46;;;;;;;22.67;20.33;;;9.10;80.20;;;;;;5532689;26;20226;-86
2024/04/17 08:43:25;;;;;;;24.27;22.13;;;9.20;80.30;;;;;;5497963;26;20636;-88
2024/04/17 08:45:55;;;;;;;24.60;22.70;;;9.50;79.40;;;;;;5531598;26;20187;-89
2024/04/17 08:48:22;;;;;;;24.30;21.93;;;9.70;78.60;;;;;;5531557;26;20729;-86
2024/04/17 08:50:48;;;;;;;23.90;22.00;;;9.90;78.10;;;;;;5498756;26;20222;-86
2024/04/17 08:53:20;;;;;;;25.63;23.43;;;9.80;76.20;;;;;;5498085;26;20260;-86
2024/04/17 08:55:47;;;;;;;25.20;23.30;;;9.90;76.50;;;;;;5498874;26;20252;-86
2024/04/17 08:58:13;;;;;;;26.47;24.57;;;9.90;76.10;;;;;;5531645;26;20214;-85
2024/04/17 09:00:39;;;;;;;26.77;24.57;;;9.80;75.80;;;;;;5530587;26;20763;-87
2024/04/17 09:03:10;;;;;;;27.53;25.30;;;9.60;74.60;;;;;;5530974;26;20222;-85
2024/04/17 09:05:36;;;;;;;31.43;29.27;;;9.70;74.80;;;;;;5501187;26;20206;-86
2024/04/17 09:08:02;;;;;;;30.00;27.67;;;9.60;72.90;;;;;;5535914;26;20206;-85
2024/04/17 09:10:27;;;;;;;28.90;26.60;;;9.70;74.00;;;;;;5535788;26;20285;-87
2024/04/17 09:12:54;;;;;;;28.60;26.43;;;9.90;74.10;;;;;;5533989;26;20565;-89
2024/04/17 09:15:20;;;;;;;33.57;31.07;;;10.00;72.00;;;;;;5535721;26;20257;-88
2024/04/17 09:17:47;;;;;;;32.53;30.03;;;10.20;72.30;;;;;;5535476;26;20261;-88
2024/04/17 09:20:13;;;;;;;33.57;30.97;;;10.30;70.40;;;;;;5535677;26;20256;-88
2024/04/17 09:22:40;;;;;;;31.67;29.17;;;10.50;70.10;;;;;;5531671;26;20694;-86
2024/04/17 09:25:15;;;;;;;19.73;18.23;;;10.50;68.20;;;;;;5529680;26;20295;-86
2024/04/17 09:27:41;;;;;;;19.23;17.90;;;10.60;68.00;;;;;;5496949;26;20222;-86
2024/04/17 09:30:07;;;;;;;19.20;17.70;;;10.60;68.40;;;;;;5529765;26;20300;-86
2024/04/17 09:32:33;;;;;;;19.30;17.80;;;10.80;68.20;;;;;;5529615;26;20218;-86
2024/04/17 09:34:59;;;;;;;19.00;17.17;;;10.80;68.00;;;;;;5529432;26;20260;-87
2024/04/17 09:37:25;;;;;;;18.97;17.47;;;10.90;70.80;;;;;;5529712;26;20270;-87
2024/04/17 09:39:51;;;;;;;19.03;17.43;;;11.20;70.20;;;;;;5529457;26;20567;-87
2024/04/17 09:42:16;;;;;;;18.87;17.03;;;11.40;68.00;;;;;;5529395;26;20256;-87
2024/04/17 09:44:45;;;;;;;19.30;17.90;;;11.40;67.50;;;;;;5496786;26;20290;-87
2024/04/17 09:47:12;;;;;;;20.43;18.60;;;10.90;67.20;;;;;;5496795;26;20629;-86
2024/04/17 09:49:44;;;;;;;18.90;17.43;;;10.70;68.90;;;;;;5497023;26;20218;-87
2024/04/17 09:52:14;;;;;;;20.17;18.37;;;11.00;68.50;;;;;;5529555;26;20268;-87
2024/04/17 09:54:41;;;;;;;19.10;17.50;;;11.50;68.20;;;;;;5529226;26;20226;-86
2024/04/17 09:57:09;;;;;;;18.97;17.37;;;11.80;69.20;;;;;;5496678;26;20256;-86
2024/04/17 09:59:35;;;;;;;20.50;18.80;;;12.10;67.10;;;;;;5496662;26;20300;-85
2024/04/17 10:02:03;;;;;;;20.23;18.73;;;12.00;63.10;;;;;;5496747;26;20229;-86
2024/04/17 10:04:30;;;;;;;22.43;20.83;;;11.70;63.60;;;;;;5496531;26;20233;-86
2024/04/17 10:06:55;;;;;;;22.27;20.70;;;11.00;62.10;;;;;;5529218;26;20245;-86
2024/04/17 10:09:22;;;;;;;22.57;20.77;;;11.30;64.30;;;;;;5496506;26;20214;-88
2024/04/17 10:11:52;;;;;;;23.40;21.60;;;11.40;60.40;;;;;;5529481;26;20809;-85
2024/04/17 10:14:18;;;;;;;23.73;22.03;;;10.90;58.30;;;;;;5529424;26;20225;-85
2024/04/17 10:16:44;;;;;;;24.40;22.50;;;10.80;61.30;;;;;;5528155;26;20604;-85
2024/04/17 10:19:12;;;;;;;23.40;21.67;;;11.00;62.50;;;;;;5528989;26;20269;-86
2024/04/17 10:21:37;;;;;;;23.50;21.73;;;11.30;63.90;;;;;;5529320;26;20756;-85
2024/04/17 10:24:07;;;;;;;24.40;22.60;;;11.50;61.40;;;;;;5528723;26;20229;-84
2024/04/17 10:26:48;;;;;;;23.10;21.40;;;11.30;59.30;;;;;;5496200;26;20230;-85
2024/04/17 10:29:16;;;;;;;23.30;21.60;;;11.90;59.00;;;;;;5496196;26;20221;-86
2024/04/17 10:31:41;;;;;;;24.27;22.43;;;12.20;63.50;;;;;;5496706;26;20217;-86
2024/04/17 10:34:07;;;;;;;23.93;21.90;;;12.50;57.20;;;;;;5529485;26;20250;-86
2024/04/17 10:36:36;;;;;;;23.07;21.37;;;12.60;59.20;;;;;;5496266;26;20219;-86
2024/04/17 10:39:02;;;;;;;24.33;22.23;;;12.30;60.80;;;;;;5528491;26;20218;-86
2024/04/17 10:41:28;;;;;;;24.07;21.83;;;12.50;60.20;;;;;;5496367;26;20595;-86
2024/04/17 10:43:56;;;;;;;24.63;22.63;;;12.30;57.90;;;;;;5495849;26;20230;-85
2024/04/17 10:46:21;;;;;;;24.40;22.50;;;11.70;57.40;;;;;;5531032;26;20253;-85
2024/04/17 10:48:51;;;;;;;24.30;22.30;;;11.90;63.70;;;;;;5498384;26;20245;-86
2024/04/17 10:51:18;;;;;;;25.13;22.87;;;12.30;60.30;;;;;;5498224;26;20222;-87
2024/04/17 10:53:46;;;;;;;24.23;22.43;;;12.20;54.90;;;;;;5530930;26;20222;-87
2024/04/17 10:56:12;;;;;;;24.40;22.60;;;12.60;54.50;;;;;;5531063;26;20744;-86
2024/04/17 10:58:39;;;;;;;22.47;20.73;;;12.10;52.70;;;;;;5498705;26;20218;-87
2024/04/17 11:01:05;;;;;;;22.53;20.83;;;12.30;67.20;;;;;;5531718;26;20299;-87
2024/04/17 11:03:30;;;;;;;21.40;19.73;;;12.80;65.60;;;;;;5532350;26;20234;-86
2024/04/17 11:05:56;;;;;;;21.73;19.93;;;13.00;68.20;;;;;;5531552;26;20272;-86
2024/04/17 11:08:22;;;;;;;22.43;20.63;;;12.70;69.00;;;;;;5532320;26;20634;-87
2024/04/17 11:10:48;;;;;;;22.80;21.00;;;13.30;66.90;;;;;;5532463;26;20210;-87
2024/04/17 11:13:17;;;;;;;23.60;21.70;;;13.70;64.50;;;;;;5531582;26;20227;-87
2024/04/17 11:15:43;;;;;;;23.13;21.23;;;13.60;63.50;;;;;;5531830;26;20206;-86
2024/04/17 11:18:09;;;;;;;22.70;21.08;;;13.50;65.30;;;;;;5532152;26;20207;-87
2024/04/17 11:20:36;;;;;;;23.57;21.60;;;13.70;64.80;;;;;;5530880;26;20264;-86
2024/04/17 11:23:06;;;;;;;23.33;21.43;;;13.00;65.70;;;;;;5531117;26;20218;-85
2024/04/17 11:25:32;;;;;;;23.03;21.23;;;12.00;67.10;;;;;;5531012;26;20261;-87
2024/04/17 11:27:57;;;;;;;23.43;21.53;;;12.10;67.60;;;;;;5497511;26;20702;-86
2024/04/17 11:30:23;;;;;;;22.97;21.17;;;12.30;67.60;;;;;;5531190;26;20344;-87
2024/04/17 11:32:49;;;;;;;21.37;19.87;;;13.10;65.20;;;;;;5531353;26;20210;-87
2024/04/17 11:35:16;;;;;;;21.57;19.77;;;12.60;67.60;;;;;;5531483;26;20693;-86
2024/04/17 11:37:45;;;;;;;20.07;18.50;;;12.70;70.10;;;;;;5530290;26;20210;-87
2024/04/17 11:40:10;;;;;;;18.77;17.37;;;11.60;74.30;;;;;;5529675;26;20223;-87
2024/04/17 11:42:42;;;;;;;32.20;30.10;;;11.70;73.10;;;;;;5530186;26;20593;-86
2024/04/17 11:45:09;;;;;;;30.40;28.33;;;11.70;73.40;;;;;;5497853;26;20222;-87
2024/04/17 11:47:36;;;;;;;30.47;28.30;;;11.50;73.90;;;;;;5530805;26;20575;-87
2024/04/17 11:50:02;;;;;;;28.67;26.87;;;10.90;75.10;;;;;;5529785;26;20309;-87
2024/04/17 11:52:29;;;;;;;28.53;26.63;;;10.80;75.20;;;;;;5497068;26;20234;-87
2024/04/17 11:54:54;;;;;;;27.83;25.73;;;10.60;74.80;;;;;;5529949;26;20315;-87
2024/04/17 11:57:20;;;;;;;27.70;26.00;;;10.90;76.60;;;;;;5497181;26;20225;-86
2024/04/17 11:59:46;;;;;;;27.53;25.73;;;11.00;74.30;;;;;;5497033;26;20226;-87
2024/04/17 12:02:11;;;;;;;32.17;29.97;;;11.50;75.00;;;;;;5529751;26;20313;-87
2024/04/17 12:04:37;;;;;;;31.93;29.43;;;11.00;71.30;;;;;;5530201;26;20252;-86
2024/04/17 12:07:02;;;;;;;32.43;30.30;;;10.80;74.60;;;;;;5530578;26;20213;-86
2024/04/17 12:09:31;;;;;;;34.60;32.30;;;11.20;73.50;;;;;;5530281;26;20202;-85
2024/04/17 12:11:56;;;;;;;33.80;31.50;;;10.80;72.00;;;;;;5530424;26;20261;-87
2024/04/17 12:14:22;;;;;;;33.50;31.20;;;11.00;73.10;;;;;;5497079;26;20249;-85
2024/04/17 12:16:47;;;;;;;34.93;32.57;;;10.80;72.80;;;;;;5497250;26;20218;-87
2024/04/17 12:19:16;;;;;;;32.93;30.63;;;11.00;72.70;;;;;;5529914;26;20300;-86
2024/04/17 12:21:41;;;;;;;31.40;29.27;;;10.50;73.00;;;;;;5529649;26;20221;-85
2024/04/17 12:24:16;;;;;;;32.43;30.23;;;10.80;75.00;;;;;;5529683;26;20748;-87
2024/04/17 12:26:51;;;;;;;34.83;32.43;;;10.80;72.80;;;;;;5529853;26;20170;-85
2024/04/17 12:29:20;;;;;;;33.47;31.07;;;10.30;72.90;;;;;;5529466;26;20174;-87